Time;durP1;ratioP1;P1;durP2;ratioP2;P2;SDS_P1;SDS_P2;PMS_P1;PMS_P2;Temp;Humidity;BMP_temperature;BMP_pressure;BME280_temperature;BME280_humidity;BME280_pressure;Samples;Min_cycle;Max_cycle;Signal;HPM_P1;HPM_P2
2022/06/14 00:02:38;;;;;;;3.77;2.30;;;18.90;27.60;;;;;;10549095;27;20231;-74
2022/06/14 00:07:43;;;;;;;2.50;2.30;;;18.80;27.60;;;;;;10546444;28;20234;-74
2022/06/14 00:12:46;;;;;;;7.00;2.60;;;18.60;28.10;;;;;;10539243;27;20236;-74
2022/06/14 00:17:49;;;;;;;2.30;2.10;;;18.50;27.80;;;;;;10531609;28;20244;-73
2022/06/14 00:22:54;;;;;;;3.33;2.03;;;18.30;27.80;;;;;;10546024;28;20233;-74
2022/06/14 00:27:58;;;;;;;2.23;2.13;;;18.20;28.30;;;;;;10542877;27;20245;-74
2022/06/14 00:33:01;;;;;;;3.13;2.27;;;18.20;28.10;;;;;;10541299;27;20215;-74
2022/06/14 00:38:06;;;;;;;2.23;1.97;;;18.20;28.40;;;;;;10545716;28;20601;-74
2022/06/14 00:43:16;;;;;;;2.07;1.87;;;18.20;28.80;;;;;;10543084;28;20213;-74
2022/06/14 00:48:23;;;;;;;1.90;1.80;;;18.10;29.10;;;;;;10541392;28;20231;-74
2022/06/14 00:53:31;;;;;;;2.87;2.20;;;18.10;29.00;;;;;;10543046;28;20243;-74
2022/06/14 00:58:39;;;;;;;3.33;1.83;;;18.10;29.40;;;;;;10545202;28;20227;-74
2022/06/14 01:03:46;;;;;;;2.83;1.77;;;18.10;29.10;;;;;;10542913;27;20270;-74
2022/06/14 01:08:56;;;;;;;2.03;1.83;;;18.00;29.10;;;;;;10539723;27;20241;-74
2022/06/14 01:14:02;;;;;;;1.97;1.87;;;18.00;29.30;;;;;;10542648;28;20332;-74
2022/06/14 01:19:10;;;;;;;2.87;2.03;;;17.90;29.00;;;;;;10493619;28;20220;-74
2022/06/14 01:24:15;;;;;;;2.17;1.90;;;17.80;29.40;;;;;;10499223;28;20231;-74
2022/06/14 01:29:19;;;;;;;2.70;2.40;;;17.70;29.20;;;;;;10497030;28;20228;-74
2022/06/14 01:34:24;;;;;;;3.23;2.00;;;17.60;29.10;;;;;;10497665;28;20233;-74
2022/06/14 01:39:29;;;;;;;2.67;2.10;;;17.50;29.30;;;;;;10495982;28;20224;-74
2022/06/14 01:44:39;;;;;;;2.67;2.10;;;17.40;29.80;;;;;;10493803;28;20613;-74
2022/06/14 01:55:23;;;;;;;3.53;2.33;;;17.30;30.30;;;;;;10530701;28;20277;-74
2022/06/14 02:00:30;;;;;;;4.50;2.70;;;17.30;30.70;;;;;;10500187;28;20227;-74
2022/06/14 02:05:35;;;;;;;2.50;2.30;;;17.30;30.00;;;;;;10497591;28;20223;-74
2022/06/14 02:10:45;;;;;;;3.13;2.40;;;17.30;29.70;;;;;;10501616;28;21848;-74
2022/06/14 02:15:53;;;;;;;3.00;2.40;;;17.30;30.20;;;;;;10498193;28;20231;-74
2022/06/14 02:21:02;;;;;;;2.23;1.90;;;17.10;29.80;;;;;;10497459;28;20224;-74
2022/06/14 02:26:12;;;;;;;3.30;2.30;;;17.00;30.10;;;;;;10495114;28;20224;-74
2022/06/14 02:31:20;;;;;;;2.57;2.37;;;16.90;30.40;;;;;;10496500;28;21051;-74
2022/06/14 02:36:29;;;;;;;2.73;2.40;;;16.90;30.20;;;;;;10495952;28;20327;-77
2022/06/14 02:41:41;;;;;;;2.40;2.20;;;16.80;30.40;;;;;;10496121;28;20223;-76
2022/06/14 02:46:48;;;;;;;2.93;2.17;;;16.80;30.80;;;;;;10492827;28;20318;-73
2022/06/14 02:51:55;;;;;;;2.80;2.40;;;16.70;30.30;;;;;;10494720;28;20239;-74
2022/06/14 02:57:05;;;;;;;2.80;2.10;;;16.60;30.20;;;;;;10495530;28;20614;-74
2022/06/14 03:02:12;;;;;;;2.80;2.20;;;16.60;30.80;;;;;;10496368;28;20673;-74
2022/06/14 03:07:20;;;;;;;1.70;1.60;;;16.50;30.60;;;;;;10495921;28;20228;-76
2022/06/14 03:12:35;;;;;;;3.40;2.07;;;16.50;30.70;;;;;;10493712;28;21146;-74
2022/06/14 03:17:50;;;;;;;2.40;2.17;;;16.40;31.20;;;;;;10496973;28;20226;-75
2022/06/14 03:23:00;;;;;;;2.27;1.87;;;16.40;31.40;;;;;;10490872;28;20228;-74
2022/06/14 03:28:10;;;;;;;2.57;2.10;;;16.40;31.00;;;;;;10497362;28;20230;-76
2022/06/14 03:33:21;;;;;;;2.20;2.00;;;16.40;31.50;;;;;;10496321;28;20227;-75
2022/06/14 03:38:31;;;;;;;2.70;2.27;;;16.40;31.50;;;;;;10508642;28;20242;-76
2022/06/14 03:43:37;;;;;;;3.20;2.13;;;16.30;31.20;;;;;;10500711;28;20227;-74
2022/06/14 03:48:45;;;;;;;2.43;2.33;;;16.20;31.00;;;;;;10500404;28;20301;-74
2022/06/14 03:54:03;;;;;;;2.13;1.77;;;16.20;31.10;;;;;;10499957;28;20703;-76
2022/06/14 03:59:34;;;;;;;4.03;1.80;;;16.10;31.80;;;;;;10500088;28;20230;-76
2022/06/14 04:04:49;;;;;;;2.40;2.20;;;16.10;32.00;;;;;;10502307;28;20594;-76
2022/06/14 04:10:01;;;;;;;2.93;1.80;;;16.10;32.70;;;;;;10498007;28;20219;-76
2022/06/14 04:15:19;;;;;;;4.47;2.30;;;16.10;32.10;;;;;;10504004;28;20224;-74
2022/06/14 04:20:28;;;;;;;4.00;2.30;;;16.10;33.10;;;;;;10503133;28;20235;-76
2022/06/14 04:25:36;;;;;;;3.33;2.30;;;16.10;32.30;;;;;;10504689;28;20227;-74
2022/06/14 04:30:49;;;;;;;3.50;2.73;;;16.10;32.00;;;;;;10502965;28;20736;-75
2022/06/14 04:35:57;;;;;;;3.37;2.40;;;16.10;33.10;;;;;;10497620;28;20236;-74
2022/06/14 04:41:05;;;;;;;2.87;2.50;;;16.20;33.10;;;;;;10502666;28;20227;-74
2022/06/14 04:46:15;;;;;;;3.07;2.50;;;16.20;33.10;;;;;;10500940;28;20223;-75
2022/06/14 04:51:24;;;;;;;4.10;2.90;;;16.20;33.20;;;;;;10504249;28;20220;-76
2022/06/14 04:56:32;;;;;;;3.63;2.80;;;16.30;33.10;;;;;;10496873;28;20228;-74
2022/06/14 05:01:45;;;;;;;4.33;2.47;;;16.30;33.30;;;;;;10497212;28;20667;-74
2022/06/14 05:06:55;;;;;;;4.30;2.83;;;16.30;33.30;;;;;;10500733;28;20306;-76
2022/06/14 05:12:03;;;;;;;3.60;2.93;;;16.40;34.10;;;;;;10503071;28;20219;-76
2022/06/14 05:17:14;;;;;;;3.53;2.50;;;16.50;33.80;;;;;;10503210;28;20231;-76
2022/06/14 05:22:24;;;;;;;2.97;2.67;;;16.60;33.80;;;;;;10501554;28;20220;-76
2022/06/14 05:27:40;;;;;;;4.20;3.20;;;16.70;33.60;;;;;;10497656;28;20228;-76
2022/06/14 05:32:53;;;;;;;4.33;3.30;;;16.90;34.50;;;;;;10501716;28;20227;-75
2022/06/14 05:38:09;;;;;;;4.80;3.37;;;17.00;33.90;;;;;;10500523;28;20254;-75
2022/06/14 05:43:26;;;;;;;4.80;3.37;;;17.10;34.00;;;;;;10496717;28;20220;-75
2022/06/14 05:48:33;;;;;;;3.93;3.63;;;17.30;34.10;;;;;;10492587;28;20235;-75
2022/06/14 05:53:43;;;;;;;5.13;3.80;;;17.40;34.20;;;;;;10494141;28;20216;-75
2022/06/14 05:58:53;;;;;;;8.23;3.70;;;17.60;34.40;;;;;;10489244;28;20239;-75
2022/06/14 06:04:03;;;;;;;3.70;2.97;;;17.70;33.80;;;;;;10497135;28;20941;-75
2022/06/14 06:09:12;;;;;;;6.30;3.70;;;17.90;34.00;;;;;;10493620;28;20843;-75
2022/06/14 06:14:19;;;;;;;5.03;3.30;;;18.10;33.90;;;;;;10496512;28;20232;-77
2022/06/14 06:19:30;;;;;;;3.97;3.67;;;18.20;33.80;;;;;;10497254;28;20723;-77
2022/06/14 06:24:44;;;;;;;5.33;3.73;;;18.40;33.80;;;;;;10493313;28;20700;-77
2022/06/14 06:29:55;;;;;;;5.33;3.60;;;18.50;33.60;;;;;;10495532;28;20251;-74
2022/06/14 06:35:02;;;;;;;5.27;3.90;;;18.60;33.60;;;;;;10495042;28;20273;-77
2022/06/14 06:40:11;;;;;;;4.17;3.53;;;18.80;34.00;;;;;;10500272;28;20231;-77
2022/06/14 06:45:17;;;;;;;3.73;3.33;;;18.90;34.40;;;;;;10538472;28;20576;-77
2022/06/14 06:50:25;;;;;;;4.90;3.90;;;19.10;33.60;;;;;;10539059;28;20679;-74
2022/06/14 06:55:38;;;;;;;3.67;3.20;;;19.20;33.60;;;;;;10540320;28;20231;-74
2022/06/14 07:00:44;;;;;;;4.10;3.70;;;19.40;33.30;;;;;;10534955;28;20237;-76
2022/06/14 07:05:53;;;;;;;6.20;3.90;;;19.60;33.20;;;;;;10537236;28;20230;-74
2022/06/14 07:10:57;;;;;;;4.33;3.93;;;19.70;33.10;;;;;;10545245;28;20223;-77
2022/06/14 07:16:07;;;;;;;4.00;3.57;;;19.90;32.40;;;;;;10544629;28;20215;-76
2022/06/14 07:21:15;;;;;;;4.03;3.63;;;20.10;32.30;;;;;;10545248;28;20274;-76
2022/06/14 07:26:24;;;;;;;4.00;3.60;;;20.30;31.80;;;;;;10547001;28;20234;-77
2022/06/14 07:31:35;;;;;;;4.47;4.07;;;20.50;32.30;;;;;;10546906;28;20231;-74
2022/06/14 07:36:51;;;;;;;4.60;3.70;;;20.70;32.00;;;;;;10539802;28;20228;-74
2022/06/14 07:42:02;;;;;;;5.27;4.07;;;20.90;32.30;;;;;;10534680;28;20664;-74
2022/06/14 07:47:15;;;;;;;4.40;3.60;;;21.10;31.70;;;;;;10541477;27;20219;-76
2022/06/14 07:52:28;;;;;;;4.33;3.80;;;21.30;31.50;;;;;;10543065;28;20324;-74
2022/06/14 07:57:34;;;;;;;3.93;3.53;;;21.50;31.20;;;;;;10542157;28;20231;-74
2022/06/14 08:02:40;;;;;;;4.20;3.60;;;21.70;31.00;;;;;;10548037;27;20314;-74
2022/06/14 08:07:48;;;;;;;4.40;3.40;;;21.90;30.30;;;;;;10543770;28;20227;-74
2022/06/14 08:12:55;;;;;;;4.33;3.73;;;22.20;29.90;;;;;;10516896;27;20316;-76
2022/06/14 08:18:06;;;;;;;3.63;3.27;;;22.40;29.80;;;;;;10511260;28;20228;-76
2022/06/14 08:23:16;;;;;;;4.40;3.63;;;22.60;28.80;;;;;;10539967;28;20246;-76
2022/06/14 08:28:23;;;;;;;4.20;3.13;;;22.90;29.00;;;;;;10549771;27;20227;-76
2022/06/14 08:33:31;;;;;;;4.17;3.40;;;23.10;28.70;;;;;;10548864;28;20891;-76
2022/06/14 08:38:40;;;;;;;5.83;3.70;;;23.20;28.40;;;;;;10550406;28;20228;-76
2022/06/14 08:43:46;;;;;;;3.57;2.90;;;23.50;27.70;;;;;;10551529;28;20223;-76
2022/06/14 08:49:09;;;;;;;4.10;3.17;;;23.60;27.80;;;;;;10547906;28;20230;-76
2022/06/14 08:54:31;;;;;;;4.13;3.33;;;23.80;26.90;;;;;;10524531;28;20224;-76
2022/06/14 09:00:04;;;;;;;5.10;3.50;;;24.00;27.00;;;;;;10552554;28;20231;-76
2022/06/14 09:05:58;;;;;;;4.87;3.10;;;24.10;27.20;;;;;;10541270;28;20297;-76
2022/06/14 09:11:30;;;;;;;3.73;2.77;;;24.30;28.20;;;;;;10428015;28;20225;-76
2022/06/14 09:16:56;;;;;;;3.93;2.90;;;24.60;26.80;;;;;;10517993;28;20587;-77
2022/06/14 09:22:14;;;;;;;3.27;2.80;;;24.80;26.20;;;;;;10542922;28;20222;-75
2022/06/14 09:27:46;;;;;;;4.90;2.97;;;24.90;25.70;;;;;;10537597;27;20243;-76
2022/06/14 09:33:21;;;;;;;4.57;3.10;;;25.10;25.00;;;;;;10541948;27;20951;-74
2022/06/14 09:38:56;;;;;;;3.33;3.03;;;25.20;25.30;;;;;;10540807;28;20231;-74
2022/06/14 09:44:40;;;;;;;3.67;3.13;;;25.30;25.40;;;;;;10540791;28;20233;-74
2022/06/14 09:50:14;;;;;;;3.60;3.13;;;25.30;25.40;;;;;;10477198;28;20223;-74
2022/06/14 09:55:43;;;;;;;3.27;2.77;;;25.40;25.50;;;;;;10499855;28;20231;-74
2022/06/14 10:00:53;;;;;;;3.40;3.10;;;25.60;25.10;;;;;;10500346;28;20742;-74
2022/06/14 10:06:32;;;;;;;3.67;2.80;;;25.70;25.20;;;;;;10495784;28;20311;-74
2022/06/14 10:11:46;;;;;;;3.20;2.90;;;25.90;24.90;;;;;;10495835;28;21263;-74
2022/06/14 10:17:23;;;;;;;3.63;2.87;;;26.10;24.00;;;;;;10494994;28;20229;-74
2022/06/14 10:22:36;;;;;;;3.57;2.53;;;26.20;24.80;;;;;;10524729;28;20224;-75
2022/06/14 10:33:26;;;;;;;4.37;2.83;;;26.50;23.60;;;;;;10536535;28;20779;-75
2022/06/14 10:39:03;;;;;;;4.03;3.20;;;26.70;23.30;;;;;;10539755;28;20277;-75
2022/06/14 10:44:21;;;;;;;4.47;2.83;;;26.80;23.00;;;;;;10497055;28;20219;-75
2022/06/14 10:49:50;;;;;;;3.70;2.97;;;26.70;22.80;;;;;;10501786;28;20237;-75
2022/06/14 10:55:07;;;;;;;4.03;2.97;;;26.90;22.60;;;;;;10540895;28;20241;-74
2022/06/14 11:00:21;;;;;;;3.70;2.70;;;27.00;22.40;;;;;;10493349;28;20234;-74
2022/06/14 11:05:33;;;;;;;4.43;3.00;;;27.10;22.10;;;;;;10494105;28;20582;-74
2022/06/14 11:10:54;;;;;;;4.33;2.60;;;27.00;22.20;;;;;;10508261;28;20223;-75
2022/06/14 11:16:08;;;;;;;4.53;2.70;;;27.00;22.70;;;;;;10524255;28;20211;-74
2022/06/14 11:21:30;;;;;;;4.10;2.60;;;27.00;22.00;;;;;;10534866;28;20447;-74
2022/06/14 11:26:41;;;;;;;3.40;3.00;;;27.10;22.00;;;;;;10537348;28;20223;-74
2022/06/14 11:31:51;;;;;;;3.17;2.80;;;27.20;22.00;;;;;;10538777;28;20220;-74
2022/06/14 11:37:12;;;;;;;4.60;2.60;;;27.30;22.20;;;;;;10535896;28;20226;-74
2022/06/14 11:42:23;;;;;;;4.70;2.97;;;27.40;21.80;;;;;;10529889;28;20226;-74
2022/06/14 11:47:33;;;;;;;4.43;2.73;;;27.50;21.30;;;;;;10537764;28;20234;-75
2022/06/14 11:52:52;;;;;;;3.10;2.80;;;27.60;21.50;;;;;;10535062;27;20277;-75
2022/06/14 11:58:06;;;;;;;3.80;3.00;;;27.70;21.10;;;;;;10527151;28;20690;-74
2022/06/14 12:03:23;;;;;;;2.87;2.60;;;27.60;20.80;;;;;;10512938;28;20291;-74
2022/06/14 12:08:46;;;;;;;3.20;2.70;;;27.60;20.60;;;;;;10501996;28;20246;-74
2022/06/14 12:14:23;;;;;;;4.80;2.90;;;27.60;20.40;;;;;;10501797;28;20228;-75
2022/06/14 12:19:32;;;;;;;4.20;2.90;;;27.60;21.20;;;;;;10499231;28;20228;-75
2022/06/14 12:30:12;;;;;;;4.07;2.83;;;27.70;20.60;;;;;;10453500;28;20235;-75
2022/06/14 12:35:19;;;;;;;2.93;2.67;;;27.80;21.30;;;;;;10495408;28;20224;-75
2022/06/14 12:40:31;;;;;;;3.60;2.93;;;27.80;20.60;;;;;;10503072;28;20248;-74
2022/06/14 12:45:39;;;;;;;3.00;2.63;;;27.80;20.00;;;;;;10499161;28;20512;-75
2022/06/14 12:50:46;;;;;;;2.97;2.60;;;27.90;20.00;;;;;;10498447;28;20248;-74
2022/06/14 12:55:55;;;;;;;3.33;2.60;;;28.00;20.10;;;;;;10498369;28;20255;-75
2022/06/14 13:01:06;;;;;;;3.20;2.90;;;28.00;19.50;;;;;;10510951;28;20315;-75
2022/06/14 13:06:24;;;;;;;4.20;2.60;;;28.10;19.90;;;;;;10529961;28;20717;-75
2022/06/14 13:11:42;;;;;;;3.00;2.50;;;28.10;19.80;;;;;;10537452;28;20215;-75
2022/06/14 13:17:07;;;;;;;3.03;2.47;;;28.10;19.60;;;;;;10535957;28;20227;-75
2022/06/14 13:22:50;;;;;;;3.23;2.60;;;28.20;19.70;;;;;;10538224;28;20235;-75
2022/06/14 13:28:07;;;;;;;2.43;2.23;;;28.20;19.70;;;;;;10539985;28;20227;-75
2022/06/14 13:33:24;;;;;;;2.60;2.40;;;28.30;18.30;;;;;;10497568;28;20222;-75
2022/06/14 13:38:35;;;;;;;3.00;2.50;;;28.30;18.20;;;;;;10494158;28;20232;-75
2022/06/14 13:43:50;;;;;;;2.87;2.20;;;28.30;18.50;;;;;;10531351;28;20605;-75
2022/06/14 13:49:01;;;;;;;2.93;2.70;;;28.30;17.70;;;;;;10546254;28;20249;-75
2022/06/14 13:54:11;;;;;;;3.73;2.63;;;28.20;18.50;;;;;;10518385;28;20223;-74
2022/06/14 13:59:19;;;;;;;2.67;2.33;;;28.20;18.20;;;;;;10543107;28;20233;-75
2022/06/14 14:04:31;;;;;;;3.27;2.23;;;28.10;18.10;;;;;;10548116;28;20235;-74
2022/06/14 14:09:43;;;;;;;3.33;2.53;;;28.10;18.40;;;;;;10541022;28;20739;-75
2022/06/14 14:15:14;;;;;;;2.67;2.47;;;28.00;18.30;;;;;;10543262;27;20223;-75
2022/06/14 14:20:38;;;;;;;2.60;2.40;;;28.10;17.90;;;;;;10539934;28;20219;-75
2022/06/14 14:25:47;;;;;;;2.13;2.03;;;28.20;17.70;;;;;;10545035;28;20227;-75
2022/06/14 14:31:11;;;;;;;2.77;2.47;;;28.30;17.70;;;;;;10539967;28;20229;-75
2022/06/14 14:36:31;;;;;;;3.00;2.40;;;28.30;17.70;;;;;;10525083;28;20878;-75
2022/06/14 14:41:42;;;;;;;2.40;2.20;;;28.40;17.10;;;;;;10543715;28;20230;-75
2022/06/14 14:46:56;;;;;;;36.73;7.90;;;28.40;16.90;;;;;;10545239;27;20232;-76
2022/06/14 14:52:09;;;;;;;2.70;2.20;;;28.40;17.00;;;;;;10513906;28;21380;-75
2022/06/14 14:57:19;;;;;;;3.50;2.60;;;28.40;16.80;;;;;;10496846;28;20281;-75
2022/06/14 15:07:59;;;;;;;2.50;2.30;;;28.40;17.10;;;;;;10541898;28;20734;-75
2022/06/14 15:13:03;;;;;;;2.97;2.37;;;28.50;16.60;;;;;;10536049;28;20215;-75
2022/06/14 15:23:40;;;;;;;2.30;2.10;;;28.60;16.10;;;;;;10550823;28;20754;-75
2022/06/14 15:28:46;;;;;;;2.43;2.23;;;28.70;16.20;;;;;;10537779;28;20237;-75
2022/06/14 15:33:50;;;;;;;2.33;2.13;;;28.70;16.60;;;;;;10543604;28;20227;-75
2022/06/14 15:38:57;;;;;;;2.80;2.60;;;28.70;16.90;;;;;;10545468;28;20228;-75
2022/06/14 15:44:04;;;;;;;3.40;2.50;;;28.70;16.70;;;;;;10550318;27;20267;-75
2022/06/14 15:49:14;;;;;;;2.60;2.37;;;28.80;16.50;;;;;;10537615;27;20219;-75
2022/06/14 15:54:26;;;;;;;2.60;2.40;;;28.90;15.60;;;;;;10550519;28;20226;-75
2022/06/14 15:59:32;;;;;;;2.40;2.20;;;28.90;15.50;;;;;;10546944;27;20231;-76
2022/06/14 16:04:38;;;;;;;2.73;2.33;;;29.00;15.80;;;;;;10548147;28;20226;-76
2022/06/14 16:09:55;;;;;;;3.07;2.50;;;29.00;16.00;;;;;;10547000;28;20229;-76
2022/06/14 16:15:03;;;;;;;2.23;2.10;;;29.10;16.50;;;;;;10528165;28;20224;-76
2022/06/14 16:20:21;;;;;;;2.50;2.30;;;29.20;15.90;;;;;;10544605;28;20345;-76
2022/06/14 16:25:35;;;;;;;2.30;2.20;;;29.30;15.70;;;;;;10540300;28;20708;-77
2022/06/14 16:30:44;;;;;;;2.67;2.47;;;29.40;16.00;;;;;;10548117;28;20226;-76
2022/06/14 16:35:54;;;;;;;2.57;2.37;;;29.50;15.50;;;;;;10546821;28;20227;-76
2022/06/14 16:41:09;;;;;;;2.63;2.43;;;29.60;15.50;;;;;;10543605;28;20231;-76
2022/06/14 16:46:15;;;;;;;2.97;2.43;;;29.60;15.30;;;;;;10546565;28;20699;-77
2022/06/14 16:51:27;;;;;;;2.53;2.17;;;29.60;15.40;;;;;;10503753;28;20894;-76
2022/06/14 16:56:36;;;;;;;2.30;2.10;;;29.50;15.00;;;;;;10510309;28;20246;-76
2022/06/14 17:01:44;;;;;;;2.63;2.43;;;29.50;15.20;;;;;;10502277;28;20228;-76
2022/06/14 17:06:56;;;;;;;2.50;2.30;;;29.50;15.40;;;;;;10503410;28;20308;-77
2022/06/14 17:12:09;;;;;;;2.57;2.37;;;29.50;15.30;;;;;;10505743;28;20228;-77
2022/06/14 17:17:25;;;;;;;2.77;2.57;;;29.50;15.40;;;;;;10496141;28;20226;-77
2022/06/14 17:22:35;;;;;;;2.80;2.50;;;29.50;15.60;;;;;;10503015;28;20239;-76
2022/06/14 17:33:08;;;;;;;2.90;2.70;;;29.50;15.80;;;;;;10506207;28;21457;-76
2022/06/14 17:38:20;;;;;;;2.60;2.40;;;29.50;16.30;;;;;;10498434;28;20221;-76
2022/06/14 17:43:29;;;;;;;2.90;2.60;;;29.50;16.40;;;;;;10506634;28;20684;-76
2022/06/14 17:48:41;;;;;;;3.23;2.90;;;29.50;16.70;;;;;;10500979;28;20300;-76
2022/06/14 17:53:54;;;;;;;2.90;2.60;;;29.50;16.40;;;;;;10534995;27;20238;-76
2022/06/14 17:59:08;;;;;;;4.07;2.70;;;29.50;16.30;;;;;;10539241;28;20839;-76
2022/06/14 18:04:13;;;;;;;3.17;2.87;;;29.50;17.40;;;;;;10541610;27;20217;-76
2022/06/14 18:09:19;;;;;;;3.87;2.70;;;29.50;17.60;;;;;;10547460;28;20307;-76
2022/06/14 18:14:29;;;;;;;2.73;2.53;;;29.40;17.80;;;;;;10528741;27;20234;-76
2022/06/14 18:24:58;;;;;;;3.80;2.80;;;29.10;17.80;;;;;;10546685;28;20719;-76
2022/06/14 18:30:12;;;;;;;2.50;2.30;;;28.90;17.80;;;;;;10557447;28;20239;-76
2022/06/14 18:35:17;;;;;;;2.40;2.23;;;28.80;18.10;;;;;;10553240;28;20234;-76
2022/06/14 18:40:37;;;;;;;2.80;2.47;;;28.60;18.00;;;;;;10550982;28;20226;-76
2022/06/14 18:45:48;;;;;;;4.63;3.40;;;28.50;18.00;;;;;;10558861;28;20794;-76
2022/06/14 18:50:57;;;;;;;6.27;3.00;;;28.30;18.40;;;;;;10551185;27;20648;-76
2022/06/14 18:56:04;;;;;;;3.30;2.70;;;28.20;19.00;;;;;;10543358;28;20703;-76
2022/06/14 19:01:26;;;;;;;3.07;2.80;;;28.00;19.40;;;;;;10542876;28;20691;-76
2022/06/14 19:07:02;;;;;;;4.47;3.30;;;27.80;19.20;;;;;;10548203;27;20223;-76
2022/06/14 19:12:19;;;;;;;3.80;3.30;;;27.60;19.40;;;;;;10562222;27;20229;-76
2022/06/14 19:17:41;;;;;;;3.53;2.83;;;27.40;19.80;;;;;;10551209;27;20234;-75
2022/06/14 19:23:05;;;;;;;2.97;2.73;;;27.20;19.70;;;;;;10549733;28;20226;-75
2022/06/14 19:28:23;;;;;;;2.90;2.70;;;27.00;19.60;;;;;;10546064;27;20233;-76
2022/06/14 19:33:29;;;;;;;4.40;2.90;;;26.80;19.90;;;;;;10556117;27;20226;-75
2022/06/14 19:39:05;;;;;;;2.80;2.60;;;26.70;20.30;;;;;;10551769;27;20245;-75
2022/06/14 19:44:13;;;;;;;4.03;2.97;;;26.60;20.20;;;;;;10550039;28;20605;-75
2022/06/14 19:54:47;;;;;;;2.80;2.60;;;26.30;20.80;;;;;;10533506;28;20229;-76
2022/06/14 19:59:57;;;;;;;5.33;2.97;;;26.10;20.80;;;;;;10552726;28;20721;-76
2022/06/14 20:05:01;;;;;;;3.60;2.97;;;25.90;21.10;;;;;;10510547;28;20219;-76
2022/06/14 20:10:09;;;;;;;3.90;2.73;;;25.70;21.10;;;;;;10546955;27;20302;-76
2022/06/14 20:15:19;;;;;;;2.77;2.57;;;25.60;21.40;;;;;;10541757;27;20227;-76
2022/06/14 20:20:31;;;;;;;4.20;2.60;;;25.40;21.60;;;;;;10549533;27;20226;-76
2022/06/14 20:25:35;;;;;;;2.93;2.73;;;25.30;22.10;;;;;;10562278;28;20595;-76
2022/06/14 20:30:40;;;;;;;2.77;2.57;;;25.20;21.60;;;;;;10556709;28;20577;-76
2022/06/14 20:35:43;;;;;;;3.10;2.80;;;25.00;21.90;;;;;;10553316;28;20226;-76
2022/06/14 20:40:47;;;;;;;4.27;3.10;;;24.90;21.90;;;;;;10513833;28;20285;-76
2022/06/14 20:45:52;;;;;;;3.00;2.70;;;24.70;22.10;;;;;;10505883;28;20603;-75
2022/06/14 20:50:55;;;;;;;3.47;3.03;;;24.60;22.50;;;;;;10520506;28;20730;-74
2022/06/14 20:56:10;;;;;;;3.73;3.10;;;24.50;22.20;;;;;;10520594;28;20253;-74
2022/06/14 21:01:15;;;;;;;4.70;3.70;;;24.40;22.90;;;;;;10528474;28;20227;-74
2022/06/14 21:06:19;;;;;;;4.00;3.40;;;24.30;22.80;;;;;;10529089;28;20224;-74
2022/06/14 21:11:31;;;;;;;3.67;3.37;;;24.10;22.60;;;;;;10511343;28;20237;-74
2022/06/14 21:16:38;;;;;;;4.10;3.70;;;24.00;23.40;;;;;;10544495;27;20576;-74
2022/06/14 21:21:47;;;;;;;4.10;3.70;;;23.90;23.30;;;;;;10545880;28;20236;-74
2022/06/14 21:27:03;;;;;;;4.70;3.43;;;23.80;23.50;;;;;;10547891;28;20219;-74
2022/06/14 21:32:08;;;;;;;4.20;3.53;;;23.60;23.50;;;;;;10535425;28;20588;-74
2022/06/14 21:37:27;;;;;;;4.80;3.40;;;23.50;23.30;;;;;;10525631;28;20226;-74
2022/06/14 21:42:32;;;;;;;3.70;3.30;;;23.50;23.50;;;;;;10545409;27;20750;-74
2022/06/14 21:47:36;;;;;;;3.77;3.47;;;23.40;23.40;;;;;;10527933;28;20236;-74
2022/06/14 21:52:40;;;;;;;3.70;3.23;;;23.20;23.60;;;;;;10536559;27;20223;-74
2022/06/14 21:57:46;;;;;;;4.00;3.57;;;23.20;23.50;;;;;;10542453;27;20707;-74
2022/06/14 22:02:51;;;;;;;3.30;3.00;;;23.10;23.80;;;;;;10548591;28;20222;-74
2022/06/14 22:07:54;;;;;;;3.47;3.03;;;23.00;23.90;;;;;;10506929;28;20228;-74
2022/06/14 22:12:57;;;;;;;5.00;2.80;;;22.90;23.90;;;;;;10507167;28;20712;-74
2022/06/14 22:18:02;;;;;;;3.27;2.87;;;22.80;23.80;;;;;;10506363;28;20960;-74
2022/06/14 22:23:05;;;;;;;3.67;3.37;;;22.80;24.30;;;;;;10538181;28;20222;-74
2022/06/14 22:28:09;;;;;;;3.83;3.40;;;22.80;24.00;;;;;;10547216;27;20263;-74
2022/06/14 22:33:16;;;;;;;4.40;3.50;;;22.70;24.10;;;;;;10550944;28;20226;-74
2022/06/14 22:38:21;;;;;;;4.50;3.10;;;22.60;24.60;;;;;;10540334;28;20249;-74
2022/06/14 22:43:24;;;;;;;3.47;3.17;;;22.50;24.50;;;;;;10548024;28;20237;-74
2022/06/14 22:48:28;;;;;;;4.17;3.77;;;22.40;24.40;;;;;;10546611;28;20316;-74
2022/06/14 22:53:32;;;;;;;10.77;9.17;;;22.30;24.50;;;;;;10548345;28;20230;-74
2022/06/14 22:58:40;;;;;;;11.20;9.93;;;22.20;24.90;;;;;;10549301;28;20231;-74
2022/06/14 23:03:43;;;;;;;6.80;5.43;;;22.10;24.90;;;;;;10531961;27;20265;-74
2022/06/14 23:08:48;;;;;;;6.97;4.80;;;22.10;24.70;;;;;;10504446;28;20584;-74
2022/06/14 23:13:51;;;;;;;4.30;3.90;;;21.90;24.90;;;;;;10511677;28;20598;-74
2022/06/14 23:18:54;;;;;;;5.13;3.57;;;21.80;24.90;;;;;;10505458;28;20230;-74
2022/06/14 23:23:59;;;;;;;3.33;3.07;;;21.70;24.90;;;;;;10507206;28;20606;-74
2022/06/14 23:29:02;;;;;;;3.43;3.13;;;21.50;25.30;;;;;;10540511;28;20635;-74
2022/06/14 23:34:06;;;;;;;5.13;3.37;;;21.40;25.10;;;;;;10521886;27;20238;-74
2022/06/14 23:39:11;;;;;;;2.90;2.70;;;21.30;25.50;;;;;;10499728;28;20230;-74
2022/06/14 23:44:16;;;;;;;3.97;3.10;;;21.20;25.70;;;;;;10508615;28;20220;-74
2022/06/14 23:49:19;;;;;;;3.10;2.87;;;21.20;25.70;;;;;;10501196;28;20220;-74
2022/06/14 23:54:24;;;;;;;3.93;3.40;;;21.10;26.00;;;;;;10505402;28;20360;-74
2022/06/14 23:59:27;;;;;;;3.73;3.30;;;21.00;26.00;;;;;;10514182;28;20223;-74
